sensor_id;sensor_type;location;lat;lon;timestamp;pressure;altitude;pressure_sealevel;temperature
75773;BMP280;64381;0.000;0.000;2023-11-22T00:00:24;95419.50;;;20.47
75773;BMP280;64381;0.000;0.000;2023-11-22T00:02:50;95421.69;;;20.49
75773;BMP280;64381;0.000;0.000;2023-11-22T00:05:15;95415.44;;;20.48
75773;BMP280;64381;0.000;0.000;2023-11-22T00:07:40;95412.47;;;20.46
75773;BMP280;64381;0.000;0.000;2023-11-22T00:10:06;95409.16;;;20.48
75773;BMP280;64381;0.000;0.000;2023-11-22T00:12:31;95417.47;;;20.48
75773;BMP280;64381;0.000;0.000;2023-11-22T00:14:56;95420.22;;;20.48
75773;BMP280;64381;0.000;0.000;2023-11-22T00:17:21;95424.28;;;20.47
75773;BMP280;64381;0.000;0.000;2023-11-22T00:19:47;95424.28;;;20.47
75773;BMP280;64381;0.000;0.000;2023-11-22T00:22:12;95425.41;;;20.44
75773;BMP280;64381;0.000;0.000;2023-11-22T00:24:37;95416.22;;;20.41
75773;BMP280;64381;0.000;0.000;2023-11-22T00:27:02;95416.41;;;20.43
75773;BMP280;64381;0.000;0.000;2023-11-22T00:29:28;95413.63;;;20.43
75773;BMP280;64381;0.000;0.000;2023-11-22T00:31:53;95423.97;;;20.43
75773;BMP280;64381;0.000;0.000;2023-11-22T00:34:18;95419.16;;;20.43
75773;BMP280;64381;0.000;0.000;2023-11-22T00:36:43;95426.00;;;20.42
75773;BMP280;64381;0.000;0.000;2023-11-22T00:39:09;95427.47;;;20.43
75773;BMP280;64381;0.000;0.000;2023-11-22T00:41:34;95428.03;;;20.42
75773;BMP280;64381;0.000;0.000;2023-11-22T00:43:59;95436.88;;;20.40
75773;BMP280;64381;0.000;0.000;2023-11-22T00:46:24;95433.41;;;20.40
75773;BMP280;64381;0.000;0.000;2023-11-22T00:48:50;95438.19;;;20.39
75773;BMP280;64381;0.000;0.000;2023-11-22T00:51:15;95432.47;;;20.37
75773;BMP280;64381;0.000;0.000;2023-11-22T00:53:40;95438.59;;;20.36
75773;BMP280;64381;0.000;0.000;2023-11-22T00:56:06;95433.78;;;20.36
75773;BMP280;64381;0.000;0.000;2023-11-22T00:58:31;95439.31;;;20.36
75773;BMP280;64381;0.000;0.000;2023-11-22T01:00:56;95440.78;;;20.37
75773;BMP280;64381;0.000;0.000;2023-11-22T01:03:21;95443.00;;;20.39
75773;BMP280;64381;0.000;0.000;2023-11-22T01:05:47;95448.72;;;20.41
75773;BMP280;64381;0.000;0.000;2023-11-22T01:08:12;95444.47;;;20.40
75773;BMP280;64381;0.000;0.000;2023-11-22T01:10:37;95450.19;;;20.42
75773;BMP280;64381;0.000;0.000;2023-11-22T01:13:02;95450.34;;;20.44
75773;BMP280;64381;0.000;0.000;2023-11-22T01:15:27;95447.59;;;20.44
75773;BMP280;64381;0.000;0.000;2023-11-22T01:17:53;95452.97;;;20.42
75773;BMP280;64381;0.000;0.000;2023-11-22T01:20:18;95445.94;;;20.41
75773;BMP280;64381;0.000;0.000;2023-11-22T01:22:43;95459.25;;;20.42
75773;BMP280;64381;0.000;0.000;2023-11-22T01:25:08;95455.31;;;20.45
75773;BMP280;64381;0.000;0.000;2023-11-22T01:27:34;95458.84;;;20.46
75773;BMP280;64381;0.000;0.000;2023-11-22T01:29:59;95461.06;;;20.47
75773;BMP280;64381;0.000;0.000;2023-11-22T01:32:24;95454.22;;;20.48
75773;BMP280;64381;0.000;0.000;2023-11-22T01:34:49;95458.44;;;20.49
75773;BMP280;64381;0.000;0.000;2023-11-22T01:37:14;95455.50;;;20.47
75773;BMP280;64381;0.000;0.000;2023-11-22T01:39:40;95462.53;;;20.48
75773;BMP280;64381;0.000;0.000;2023-11-22T01:42:05;95461.22;;;20.49
75773;BMP280;64381;0.000;0.000;2023-11-22T01:44:30;95463.09;;;20.47
75773;BMP280;64381;0.000;0.000;2023-11-22T01:46:56;95465.13;;;20.46
75773;BMP280;64381;0.000;0.000;2023-11-22T01:49:22;95467.13;;;20.46
75773;BMP280;64381;0.000;0.000;2023-11-22T01:51:47;95472.69;;;20.46
75773;BMP280;64381;0.000;0.000;2023-11-22T01:54:13;95472.69;;;20.46
75773;BMP280;64381;0.000;0.000;2023-11-22T01:56:39;95476.00;;;20.44
75773;BMP280;64381;0.000;0.000;2023-11-22T01:59:04;95469.19;;;20.45
75773;BMP280;64381;0.000;0.000;2023-11-22T02:01:30;95466.06;;;20.41
75773;BMP280;64381;0.000;0.000;2023-11-22T02:03:55;95466.81;;;20.42
75773;BMP280;64381;0.000;0.000;2023-11-22T02:06:21;95473.84;;;20.43
75773;BMP280;64381;0.000;0.000;2023-11-22T02:08:47;95486.94;;;20.42
75773;BMP280;64381;0.000;0.000;2023-11-22T02:11:12;95484.72;;;20.41
75773;BMP280;64381;0.000;0.000;2023-11-22T02:13:38;95491.75;;;20.42
75773;BMP280;64381;0.000;0.000;2023-11-22T02:16:04;95497.28;;;20.42
75773;BMP280;64381;0.000;0.000;2023-11-22T02:18:29;95497.13;;;20.40
75773;BMP280;64381;0.000;0.000;2023-11-22T02:20:55;95500.59;;;20.40
75773;BMP280;64381;0.000;0.000;2023-11-22T02:23:21;95513.75;;;20.40
75773;BMP280;64381;0.000;0.000;2023-11-22T02:25:46;95507.28;;;20.37
75773;BMP280;64381;0.000;0.000;2023-11-22T02:28:12;95508.75;;;20.38
75773;BMP280;64381;0.000;0.000;2023-11-22T02:30:38;95517.81;;;20.39
75773;BMP280;64381;0.000;0.000;2023-11-22T02:33:03;95516.31;;;20.38
75773;BMP280;64381;0.000;0.000;2023-11-22T02:35:28;95520.56;;;20.39
75773;BMP280;64381;0.000;0.000;2023-11-22T02:37:54;95523.34;;;20.39
75773;BMP280;64381;0.000;0.000;2023-11-22T02:40:20;95515.78;;;20.39
75773;BMP280;64381;0.000;0.000;2023-11-22T02:42:53;95520.19;;;20.42
75773;BMP280;64381;0.000;0.000;2023-11-22T02:45:26;95523.69;;;20.43
75773;BMP280;64381;0.000;0.000;2023-11-22T02:47:51;95517.81;;;20.39
75773;BMP280;64381;0.000;0.000;2023-11-22T02:50:16;95529.78;;;20.41
75773;BMP280;64381;0.000;0.000;2023-11-22T02:52:42;95540.34;;;20.43
75773;BMP280;64381;0.000;0.000;2023-11-22T02:55:08;95533.47;;;20.44
75773;BMP280;64381;0.000;0.000;2023-11-22T02:57:33;95538.31;;;20.43
75773;BMP280;64381;0.000;0.000;2023-11-22T02:59:58;95539.00;;;20.44
75773;BMP280;64381;0.000;0.000;2023-11-22T03:02:24;95534.78;;;20.43
75773;BMP280;64381;0.000;0.000;2023-11-22T03:04:49;95541.78;;;20.44
75773;BMP280;64381;0.000;0.000;2023-11-22T03:07:15;95540.47;;;20.45
75773;BMP280;64381;0.000;0.000;2023-11-22T03:09:40;95549.16;;;20.49
75773;BMP280;64381;0.000;0.000;2023-11-22T03:12:06;95547.69;;;20.48
75773;BMP280;64381;0.000;0.000;2023-11-22T03:14:31;95549.16;;;20.49
75773;BMP280;64381;0.000;0.000;2023-11-22T03:16:56;95558.78;;;20.48
75773;BMP280;64381;0.000;0.000;2023-11-22T03:19:21;95561.53;;;20.48
75773;BMP280;64381;0.000;0.000;2023-11-22T03:21:47;95562.28;;;20.48
75773;BMP280;64381;0.000;0.000;2023-11-22T03:24:12;95564.84;;;20.46
75773;BMP280;64381;0.000;0.000;2023-11-22T03:26:37;95564.84;;;20.46
75773;BMP280;64381;0.000;0.000;2023-11-22T03:29:02;95566.88;;;20.46
75773;BMP280;64381;0.000;0.000;2023-11-22T03:31:28;95575.19;;;20.46
75773;BMP280;64381;0.000;0.000;2023-11-22T03:33:54;95576.47;;;20.45
75773;BMP280;64381;0.000;0.000;2023-11-22T03:36:19;95583.19;;;20.42
75773;BMP280;64381;0.000;0.000;2023-11-22T03:38:45;95580.41;;;20.42
75773;BMP280;64381;0.000;0.000;2023-11-22T03:41:10;95587.97;;;20.41
75773;BMP280;64381;0.000;0.000;2023-11-22T03:43:35;95592.78;;;20.41
75773;BMP280;64381;0.000;0.000;2023-11-22T03:46:00;95597.03;;;20.42
75773;BMP280;64381;0.000;0.000;2023-11-22T03:48:25;95603.31;;;20.42
75773;BMP280;64381;0.000;0.000;2023-11-22T03:50:51;95599.63;;;20.40
75773;BMP280;64381;0.000;0.000;2023-11-22T03:53:16;95605.72;;;20.38
75773;BMP280;64381;0.000;0.000;2023-11-22T03:55:41;95618.81;;;20.38
75773;BMP280;64381;0.000;0.000;2023-11-22T03:58:06;95611.25;;;20.38
75773;BMP280;64381;0.000;0.000;2023-11-22T04:00:32;95616.25;;;20.40
75773;BMP280;64381;0.000;0.000;2023-11-22T04:02:57;95623.63;;;20.37
75773;BMP280;64381;0.000;0.000;2023-11-22T04:05:22;95625.84;;;20.39
75773;BMP280;64381;0.000;0.000;2023-11-22T04:07:47;95636.75;;;20.37
75773;BMP280;64381;0.000;0.000;2023-11-22T04:10:12;95631.78;;;20.35
75773;BMP280;64381;0.000;0.000;2023-11-22T04:12:38;95632.69;;;20.38
75773;BMP280;64381;0.000;0.000;2023-11-22T04:15:04;95641.19;;;20.40
75773;BMP280;64381;0.000;0.000;2023-11-22T04:17:29;95641.19;;;20.40
75773;BMP280;64381;0.000;0.000;2023-11-22T04:19:55;95634.34;;;20.41
75773;BMP280;64381;0.000;0.000;2023-11-22T04:22:20;95633.03;;;20.42
75773;BMP280;64381;0.000;0.000;2023-11-22T04:24:45;95636.56;;;20.42
75773;BMP280;64381;0.000;0.000;2023-11-22T04:27:10;95637.31;;;20.43
75773;BMP280;64381;0.000;0.000;2023-11-22T04:29:36;95647.06;;;20.44
75773;BMP280;64381;0.000;0.000;2023-11-22T04:32:01;95636.00;;;20.44
75773;BMP280;64381;0.000;0.000;2023-11-22T04:34:26;95648.53;;;20.45
75773;BMP280;64381;0.000;0.000;2023-11-22T04:36:51;95656.09;;;20.44
75773;BMP280;64381;0.000;0.000;2023-11-22T04:39:16;95659.81;;;20.47
75773;BMP280;64381;0.000;0.000;2023-11-22T04:41:42;95648.91;;;20.49
75773;BMP280;64381;0.000;0.000;2023-11-22T04:44:07;95651.66;;;20.49
75773;BMP280;64381;0.000;0.000;2023-11-22T04:46:32;95664.06;;;20.48
75773;BMP280;64381;0.000;0.000;2023-11-22T04:48:58;95671.06;;;20.49
75773;BMP280;64381;0.000;0.000;2023-11-22T04:51:23;95679.38;;;20.49
75773;BMP280;64381;0.000;0.000;2023-11-22T04:53:48;95679.22;;;20.47
75773;BMP280;64381;0.000;0.000;2023-11-22T04:56:14;95676.44;;;20.47
75773;BMP280;64381;0.000;0.000;2023-11-22T04:58:39;95676.22;;;20.45
75773;BMP280;64381;0.000;0.000;2023-11-22T05:01:04;95688.06;;;20.45
75773;BMP280;64381;0.000;0.000;2023-11-22T05:03:29;95691.56;;;20.46
75773;BMP280;64381;0.000;0.000;2023-11-22T05:05:54;95694.88;;;20.44
75773;BMP280;64381;0.000;0.000;2023-11-22T05:08:20;95694.88;;;20.44
75773;BMP280;64381;0.000;0.000;2023-11-22T05:10:45;95691.41;;;20.44
75773;BMP280;64381;0.000;0.000;2023-11-22T05:13:10;95693.47;;;20.43
75773;BMP280;64381;0.000;0.000;2023-11-22T05:15:35;95696.94;;;20.44
75773;BMP280;64381;0.000;0.000;2023-11-22T05:18:01;95704.53;;;20.43
75773;BMP280;64381;0.000;0.000;2023-11-22T05:20:26;95703.06;;;20.42
75773;BMP280;64381;0.000;0.000;2023-11-22T05:22:51;95707.84;;;20.42
75773;BMP280;64381;0.000;0.000;2023-11-22T05:25:16;95709.34;;;20.43
75773;BMP280;64381;0.000;0.000;2023-11-22T05:27:41;95715.44;;;20.41
75773;BMP280;64381;0.000;0.000;2023-11-22T05:30:07;95720.78;;;20.39
75773;BMP280;64381;0.000;0.000;2023-11-22T05:32:32;95722.25;;;20.40
75773;BMP280;64381;0.000;0.000;2023-11-22T05:34:58;95722.81;;;20.39
75773;BMP280;64381;0.000;0.000;2023-11-22T05:37:23;95724.31;;;20.40
75773;BMP280;64381;0.000;0.000;2023-11-22T05:39:48;95726.88;;;20.38
75773;BMP280;64381;0.000;0.000;2023-11-22T05:42:13;95731.88;;;20.39
75773;BMP280;64381;0.000;0.000;2023-11-22T05:44:39;95731.88;;;20.39
75773;BMP280;64381;0.000;0.000;2023-11-22T05:47:04;95740.72;;;20.38
75773;BMP280;64381;0.000;0.000;2023-11-22T05:49:30;95747.75;;;20.39
75773;BMP280;64381;0.000;0.000;2023-11-22T05:51:55;95759.75;;;20.41
75773;BMP280;64381;0.000;0.000;2023-11-22T05:54:20;95761.78;;;20.41
75773;BMP280;64381;0.000;0.000;2023-11-22T05:56:45;95760.50;;;20.42
75773;BMP280;64381;0.000;0.000;2023-11-22T05:59:10;95768.81;;;20.42
75773;BMP280;64381;0.000;0.000;2023-11-22T06:01:36;95761.38;;;20.44
75773;BMP280;64381;0.000;0.000;2023-11-22T06:04:01;95767.66;;;20.45
75773;BMP280;64381;0.000;0.000;2023-11-22T06:06:26;95771.56;;;20.42
75773;BMP280;64381;0.000;0.000;2023-11-22T06:08:51;95782.13;;;20.43
75773;BMP280;64381;0.000;0.000;2023-11-22T06:11:16;95783.56;;;20.44
75773;BMP280;64381;0.000;0.000;2023-11-22T06:13:42;95786.53;;;20.46
75773;BMP280;64381;0.000;0.000;2023-11-22T06:16:07;95781.72;;;20.47
75773;BMP280;64381;0.000;0.000;2023-11-22T06:18:32;95786.72;;;20.48
75773;BMP280;64381;0.000;0.000;2023-11-22T06:20:57;95784.69;;;20.49
75773;BMP280;64381;0.000;0.000;2023-11-22T06:23:23;95786.00;;;20.48
75773;BMP280;64381;0.000;0.000;2023-11-22T06:25:48;95779.13;;;20.49
75773;BMP280;64381;0.000;0.000;2023-11-22T06:28:13;95790.78;;;20.47
75773;BMP280;64381;0.000;0.000;2023-11-22T06:30:38;95800.59;;;20.48
75773;BMP280;64381;0.000;0.000;2023-11-22T06:33:04;95800.38;;;20.46
75773;BMP280;64381;0.000;0.000;2023-11-22T06:35:29;95798.34;;;20.47
75773;BMP280;64381;0.000;0.000;2023-11-22T06:37:54;95807.94;;;20.46
75773;BMP280;64381;0.000;0.000;2023-11-22T06:40:19;95817.53;;;20.45
75773;BMP280;64381;0.000;0.000;2023-11-22T06:42:44;95819.44;;;20.42
75773;BMP280;64381;0.000;0.000;2023-11-22T06:45:10;95820.31;;;20.45
75773;BMP280;64381;0.000;0.000;2023-11-22T06:47:39;95823.69;;;20.43
75773;BMP280;64381;0.000;0.000;2023-11-22T06:50:04;95824.22;;;20.42
75773;BMP280;64381;0.000;0.000;2023-11-22T06:52:30;95838.81;;;20.42
75773;BMP280;64381;0.000;0.000;2023-11-22T06:54:55;95837.91;;;20.40
75773;BMP280;64381;0.000;0.000;2023-11-22T06:57:20;95835.84;;;20.40
75773;BMP280;64381;0.000;0.000;2023-11-22T06:59:45;95832.91;;;20.38
75773;BMP280;64381;0.000;0.000;2023-11-22T07:02:11;95839.19;;;20.39
75773;BMP280;64381;0.000;0.000;2023-11-22T07:04:36;95842.69;;;20.39
75773;BMP280;64381;0.000;0.000;2023-11-22T07:07:01;95852.28;;;20.38
75773;BMP280;64381;0.000;0.000;2023-11-22T07:09:26;95863.38;;;20.38
75773;BMP280;64381;0.000;0.000;2023-11-22T07:11:51;95849.34;;;20.36
75773;BMP280;64381;0.000;0.000;2023-11-22T07:14:17;95852.13;;;20.36
75773;BMP280;64381;0.000;0.000;2023-11-22T07:16:42;95859.69;;;20.36
75773;BMP280;64381;0.000;0.000;2023-11-22T07:19:07;95859.69;;;20.36
75773;BMP280;64381;0.000;0.000;2023-11-22T07:21:32;95870.94;;;20.38
75773;BMP280;64381;0.000;0.000;2023-11-22T07:23:58;95868.19;;;20.38
75773;BMP280;64381;0.000;0.000;2023-11-22T07:26:23;95862.63;;;20.38
75773;BMP280;64381;0.000;0.000;2023-11-22T07:28:49;95880.91;;;20.41
75773;BMP280;64381;0.000;0.000;2023-11-22T07:31:14;95876.13;;;20.41
75773;BMP280;64381;0.000;0.000;2023-11-22T07:33:39;95885.19;;;20.42
75773;BMP280;64381;0.000;0.000;2023-11-22T07:36:05;95887.22;;;20.41
75773;BMP280;64381;0.000;0.000;2023-11-22T07:38:30;95903.28;;;20.43
75773;BMP280;64381;0.000;0.000;2023-11-22T07:40:55;95908.84;;;20.43
75773;BMP280;64381;0.000;0.000;2023-11-22T07:43:20;95907.53;;;20.44
75773;BMP280;64381;0.000;0.000;2023-11-22T07:45:46;95914.00;;;20.46
75773;BMP280;64381;0.000;0.000;2023-11-22T07:48:11;95914.75;;;20.47
75773;BMP280;64381;0.000;0.000;2023-11-22T07:50:40;95914.00;;;20.46
75773;BMP280;64381;0.000;0.000;2023-11-22T07:53:05;95926.56;;;20.47
75773;BMP280;64381;0.000;0.000;2023-11-22T07:55:30;95929.34;;;20.47
75773;BMP280;64381;0.000;0.000;2023-11-22T07:57:56;95932.09;;;20.47
75773;BMP280;64381;0.000;0.000;2023-11-22T08:00:21;95932.84;;;20.48
75773;BMP280;64381;0.000;0.000;2023-11-22T08:02:46;95928.06;;;20.48
75773;BMP280;64381;0.000;0.000;2023-11-22T08:05:12;95938.41;;;20.48
75773;BMP280;64381;0.000;0.000;2023-11-22T08:07:37;95939.69;;;20.47
75773;BMP280;64381;0.000;0.000;2023-11-22T08:10:02;95941.72;;;20.46
75773;BMP280;64381;0.000;0.000;2023-11-22T08:12:28;95942.44;;;20.47
75773;BMP280;64381;0.000;0.000;2023-11-22T08:14:53;95945.00;;;20.45
75773;BMP280;64381;0.000;0.000;2023-11-22T08:17:18;95942.09;;;20.43
75773;BMP280;64381;0.000;0.000;2023-11-22T08:19:43;95955.19;;;20.42
75773;BMP280;64381;0.000;0.000;2023-11-22T08:22:08;95971.81;;;20.42
75773;BMP280;64381;0.000;0.000;2023-11-22T08:24:34;95980.13;;;20.42
75773;BMP280;64381;0.000;0.000;2023-11-22T08:26:59;95982.16;;;20.42
75773;BMP280;64381;0.000;0.000;2023-11-22T08:29:24;95984.19;;;20.41
75773;BMP280;64381;0.000;0.000;2023-11-22T08:31:50;95962.03;;;20.41
75773;BMP280;64381;0.000;0.000;2023-11-22T08:34:15;95965.34;;;20.40
75773;BMP280;64381;0.000;0.000;2023-11-22T08:36:40;95968.13;;;20.40
75773;BMP280;64381;0.000;0.000;2023-11-22T08:39:05;95973.09;;;20.41
75773;BMP280;64381;0.000;0.000;2023-11-22T08:41:32;95972.19;;;20.39
75773;BMP280;64381;0.000;0.000;2023-11-22T08:43:58;95967.91;;;20.38
75773;BMP280;64381;0.000;0.000;2023-11-22T08:46:23;95973.47;;;20.38
75773;BMP280;64381;0.000;0.000;2023-11-22T08:48:51;95982.34;;;20.36
75773;BMP280;64381;0.000;0.000;2023-11-22T08:51:17;95988.63;;;20.37
75773;BMP280;64381;0.000;0.000;2023-11-22T08:53:43;95988.63;;;20.37
75773;BMP280;64381;0.000;0.000;2023-11-22T08:56:08;95999.69;;;20.37
75773;BMP280;64381;0.000;0.000;2023-11-22T08:58:33;95991.41;;;20.37
75773;BMP280;64381;0.000;0.000;2023-11-22T09:00:58;96003.41;;;20.39
75773;BMP280;64381;0.000;0.000;2023-11-22T09:03:24;96006.91;;;20.40
75773;BMP280;64381;0.000;0.000;2023-11-22T09:05:49;96008.38;;;20.41
75773;BMP280;64381;0.000;0.000;2023-11-22T09:08:14;96013.38;;;20.42
75773;BMP280;64381;0.000;0.000;2023-11-22T09:10:39;96011.91;;;20.41
75773;BMP280;64381;0.000;0.000;2023-11-22T09:13:05;96011.38;;;20.43
75773;BMP280;64381;0.000;0.000;2023-11-22T09:15:30;96013.38;;;20.42
75773;BMP280;64381;0.000;0.000;2023-11-22T09:17:55;96028.16;;;20.45
75773;BMP280;64381;0.000;0.000;2023-11-22T09:20:20;96035.19;;;20.46
75773;BMP280;64381;0.000;0.000;2023-11-22T09:22:48;96036.66;;;20.47
75773;BMP280;64381;0.000;0.000;2023-11-22T09:25:17;96036.13;;;20.48
75773;BMP280;64381;0.000;0.000;2023-11-22T09:27:43;96050.72;;;20.49
75773;BMP280;64381;0.000;0.000;2023-11-22T09:30:09;96047.22;;;20.48
75773;BMP280;64381;0.000;0.000;2023-11-22T09:32:34;96042.97;;;20.47
75773;BMP280;64381;0.000;0.000;2023-11-22T09:34:59;96056.25;;;20.49
75773;BMP280;64381;0.000;0.000;2023-11-22T09:37:25;96050.53;;;20.47
75773;BMP280;64381;0.000;0.000;2023-11-22T09:39:50;96054.22;;;20.49
75773;BMP280;64381;0.000;0.000;2023-11-22T09:42:16;96063.09;;;20.48
75773;BMP280;64381;0.000;0.000;2023-11-22T09:44:41;96069.38;;;20.48
75773;BMP280;64381;0.000;0.000;2023-11-22T09:47:06;96063.63;;;20.46
75773;BMP280;64381;0.000;0.000;2023-11-22T09:49:32;96064.38;;;20.47
75773;BMP280;64381;0.000;0.000;2023-11-22T09:52:01;96067.16;;;20.47
75773;BMP280;64381;0.000;0.000;2023-11-22T09:54:28;96068.44;;;20.46
75773;BMP280;64381;0.000;0.000;2023-11-22T09:56:53;96076.56;;;20.44
75773;BMP280;64381;0.000;0.000;2023-11-22T09:59:18;96069.56;;;20.43
75773;BMP280;64381;0.000;0.000;2023-11-22T10:01:45;96068.06;;;20.42
75773;BMP280;64381;0.000;0.000;2023-11-22T10:04:10;96064.00;;;20.43
75773;BMP280;64381;0.000;0.000;2023-11-22T10:06:36;96068.59;;;20.40
75773;BMP280;64381;0.000;0.000;2023-11-22T10:09:02;96067.88;;;20.40
75773;BMP280;64381;0.000;0.000;2023-11-22T10:11:27;96076.91;;;20.40
75773;BMP280;64381;0.000;0.000;2023-11-22T10:13:52;96072.69;;;20.39
75773;BMP280;64381;0.000;0.000;2023-11-22T10:16:18;96065.66;;;20.38
75773;BMP280;64381;0.000;0.000;2023-11-22T10:18:47;96055.31;;;20.39
75773;BMP280;64381;0.000;0.000;2023-11-22T10:21:20;96059.56;;;20.40
75773;BMP280;64381;0.000;0.000;2023-11-22T10:23:46;96058.06;;;20.39
75773;BMP280;64381;0.000;0.000;2023-11-22T10:26:11;96071.94;;;20.39
75773;BMP280;64381;0.000;0.000;2023-11-22T10:28:39;96071.94;;;20.39
75773;BMP280;64381;0.000;0.000;2023-11-22T10:31:07;96067.66;;;20.38
75773;BMP280;64381;0.000;0.000;2023-11-22T10:33:32;96072.47;;;20.37
75773;BMP280;64381;0.000;0.000;2023-11-22T10:35:57;96085.78;;;20.39
75773;BMP280;64381;0.000;0.000;2023-11-22T10:38:23;96079.50;;;20.38
75773;BMP280;64381;0.000;0.000;2023-11-22T10:40:48;96078.97;;;20.40
75773;BMP280;64381;0.000;0.000;2023-11-22T10:43:14;96071.38;;;20.40
75773;BMP280;64381;0.000;0.000;2023-11-22T10:45:40;96068.81;;;20.42
75773;BMP280;64381;0.000;0.000;2023-11-22T10:48:07;96058.47;;;20.43
75773;BMP280;64381;0.000;0.000;2023-11-22T10:50:32;96074.34;;;20.42
75773;BMP280;64381;0.000;0.000;2023-11-22T10:52:58;96065.47;;;20.44
75773;BMP280;64381;0.000;0.000;2023-11-22T10:55:27;96070.31;;;20.43
75773;BMP280;64381;0.000;0.000;2023-11-22T10:58:03;96076.00;;;20.45
75773;BMP280;64381;0.000;0.000;2023-11-22T11:00:31;96085.81;;;20.46
75773;BMP280;64381;0.000;0.000;2023-11-22T11:03:02;96089.50;;;20.49
75773;BMP280;64381;0.000;0.000;2023-11-22T11:05:30;96088.78;;;20.48
75773;BMP280;64381;0.000;0.000;2023-11-22T11:08:17;96096.53;;;20.50
75773;BMP280;64381;0.000;0.000;2023-11-22T11:10:44;96099.13;;;20.48
75773;BMP280;64381;0.000;0.000;2023-11-22T11:13:09;96105.41;;;20.48
75773;BMP280;64381;0.000;0.000;2023-11-22T11:15:36;96099.13;;;20.48
75773;BMP280;64381;0.000;0.000;2023-11-22T11:18:02;96117.22;;;20.49
75773;BMP280;64381;0.000;0.000;2023-11-22T11:20:55;96113.00;;;20.48
75773;BMP280;64381;0.000;0.000;2023-11-22T11:23:22;96121.84;;;20.46
75773;BMP280;64381;0.000;0.000;2023-11-22T11:25:59;96129.94;;;20.44
75773;BMP280;64381;0.000;0.000;2023-11-22T11:28:42;96121.63;;;20.44
75773;BMP280;64381;0.000;0.000;2023-11-22T11:31:08;96118.69;;;20.42
75773;BMP280;64381;0.000;0.000;2023-11-22T11:33:33;96114.63;;;20.43
75773;BMP280;64381;0.000;0.000;2023-11-22T11:36:01;96102.81;;;20.43
75773;BMP280;64381;0.000;0.000;2023-11-22T11:38:31;96094.28;;;20.41
75773;BMP280;64381;0.000;0.000;2023-11-22T11:41:09;96099.28;;;20.42
75773;BMP280;64381;0.000;0.000;2023-11-22T11:43:47;96088.00;;;20.40
75773;BMP280;64381;0.000;0.000;2023-11-22T11:46:13;96088.38;;;20.37
75773;BMP280;64381;0.000;0.000;2023-11-22T11:48:47;96087.81;;;20.38
75773;BMP280;64381;0.000;0.000;2023-11-22T11:51:17;96078.00;;;20.37
75773;BMP280;64381;0.000;0.000;2023-11-22T11:53:43;96081.53;;;20.38
75773;BMP280;64381;0.000;0.000;2023-11-22T11:56:09;96078.00;;;20.37
75773;BMP280;64381;0.000;0.000;2023-11-22T11:58:35;96080.06;;;20.37
75773;BMP280;64381;0.000;0.000;2023-11-22T12:01:00;96085.03;;;20.38
75773;BMP280;64381;0.000;0.000;2023-11-22T12:03:25;96085.41;;;20.35
75773;BMP280;64381;0.000;0.000;2023-11-22T12:05:50;96086.88;;;20.36
75773;BMP280;64381;0.000;0.000;2023-11-22T12:08:16;96084.84;;;20.36
75773;BMP280;64381;0.000;0.000;2023-11-22T12:13:09;96074.50;;;20.37
75773;BMP280;64381;0.000;0.000;2023-11-22T12:15:35;96080.25;;;20.39
75773;BMP280;64381;0.000;0.000;2023-11-22T12:18:01;96084.50;;;20.40
75773;BMP280;64381;0.000;0.000;2023-11-22T12:20:26;96089.31;;;20.39
75773;BMP280;64381;0.000;0.000;2023-11-22T12:22:52;96110.91;;;20.41
75773;BMP280;64381;0.000;0.000;2023-11-22T12:25:17;96109.63;;;20.42
75773;BMP280;64381;0.000;0.000;2023-11-22T12:27:43;96115.34;;;20.44
75773;BMP280;64381;0.000;0.000;2023-11-22T12:30:09;96127.16;;;20.44
75773;BMP280;64381;0.000;0.000;2023-11-22T12:32:38;96125.13;;;20.45
75773;BMP280;64381;0.000;0.000;2023-11-22T12:35:04;96110.00;;;20.46
75773;BMP280;64381;0.000;0.000;2023-11-22T12:37:30;96117.03;;;20.47
75773;BMP280;64381;0.000;0.000;2023-11-22T12:39:55;96111.69;;;20.49
75773;BMP280;64381;0.000;0.000;2023-11-22T12:42:20;96113.53;;;20.46
75773;BMP280;64381;0.000;0.000;2023-11-22T12:44:52;96115.75;;;20.48
75773;BMP280;64381;0.000;0.000;2023-11-22T12:47:31;96111.69;;;20.49
75773;BMP280;64381;0.000;0.000;2023-11-22T12:49:56;96105.94;;;20.47
75773;BMP280;64381;0.000;0.000;2023-11-22T12:52:26;96112.44;;;20.49
75773;BMP280;64381;0.000;0.000;2023-11-22T12:54:51;96109.47;;;20.47
75773;BMP280;64381;0.000;0.000;2023-11-22T12:57:17;96111.28;;;20.45
75773;BMP280;64381;0.000;0.000;2023-11-22T12:59:42;96116.81;;;20.45
75773;BMP280;64381;0.000;0.000;2023-11-22T13:02:07;96118.31;;;20.46
75773;BMP280;64381;0.000;0.000;2023-11-22T13:04:32;96121.63;;;20.44
75773;BMP280;64381;0.000;0.000;2023-11-22T13:06:57;96138.09;;;20.42
75773;BMP280;64381;0.000;0.000;2023-11-22T13:09:23;96123.50;;;20.42
75773;BMP280;64381;0.000;0.000;2023-11-22T13:11:48;96115.72;;;20.40
75773;BMP280;64381;0.000;0.000;2023-11-22T13:14:14;96122.75;;;20.41
75773;BMP280;64381;0.000;0.000;2023-11-22T13:16:40;96133.81;;;20.41
75773;BMP280;64381;0.000;0.000;2023-11-22T13:19:05;96134.56;;;20.42
75773;BMP280;64381;0.000;0.000;2023-11-22T13:21:30;96140.66;;;20.40
75773;BMP280;64381;0.000;0.000;2023-11-22T13:23:56;96134.16;;;20.38
75773;BMP280;64381;0.000;0.000;2023-11-22T13:26:21;96125.84;;;20.38
75773;BMP280;64381;0.000;0.000;2023-11-22T13:28:46;96125.84;;;20.38
75773;BMP280;64381;0.000;0.000;2023-11-22T13:31:11;96131.22;;;20.36
75773;BMP280;64381;0.000;0.000;2023-11-22T13:33:37;96139.72;;;20.38
75773;BMP280;64381;0.000;0.000;2023-11-22T13:36:02;96140.28;;;20.36
75773;BMP280;64381;0.000;0.000;2023-11-22T13:38:27;96145.06;;;20.36
75773;BMP280;64381;0.000;0.000;2023-11-22T13:40:52;96143.03;;;20.36
75773;BMP280;64381;0.000;0.000;2023-11-22T13:43:18;96133.97;;;20.36
75773;BMP280;64381;0.000;0.000;2023-11-22T13:45:43;96129.94;;;20.37
75773;BMP280;64381;0.000;0.000;2023-11-22T13:48:08;96128.63;;;20.38
75773;BMP280;64381;0.000;0.000;2023-11-22T13:50:33;96134.16;;;20.38
75773;BMP280;64381;0.000;0.000;2023-11-22T13:52:58;96133.63;;;20.39
75773;BMP280;64381;0.000;0.000;2023-11-22T13:55:24;96137.88;;;20.40
75773;BMP280;64381;0.000;0.000;2023-11-22T13:57:50;96138.09;;;20.42
75773;BMP280;64381;0.000;0.000;2023-11-22T14:00:17;96138.84;;;20.43
75773;BMP280;64381;0.000;0.000;2023-11-22T14:02:42;96135.31;;;20.42
75773;BMP280;64381;0.000;0.000;2023-11-22T14:05:07;96127.91;;;20.45
75773;BMP280;64381;0.000;0.000;2023-11-22T14:07:34;96123.84;;;20.46
75773;BMP280;64381;0.000;0.000;2023-11-22T14:10:00;96130.69;;;20.45
75773;BMP280;64381;0.000;0.000;2023-11-22T14:12:25;96130.91;;;20.47
75773;BMP280;64381;0.000;0.000;2023-11-22T14:14:50;96130.34;;;20.48